createdAt,value
2022-10-28T00:00:43.070Z,101144.97
2022-10-28T00:04:59.242Z,101143.66
2022-10-28T00:09:15.384Z,101143.97
2022-10-28T00:13:31.731Z,101135.03
2022-10-28T00:17:47.854Z,101137.06
2022-10-28T00:22:04.086Z,101134.19
2022-10-28T00:26:26.064Z,101131.94
2022-10-28T00:30:42.228Z,101130.22
2022-10-28T00:34:58.733Z,101136.09
2022-10-28T00:39:17.260Z,101134.16
2022-10-28T00:43:51.366Z,101128.28
2022-10-28T00:48:08.702Z,101128.81
2022-10-28T00:52:28.512Z,101132.31
2022-10-28T00:56:49.914Z,101118.72
2022-10-28T01:01:06.246Z,101112.63
2022-10-28T01:05:27.362Z,101114.00
2022-10-28T01:09:44.025Z,101109.88
2022-10-28T01:14:11.131Z,101109.28
2022-10-28T01:18:38.726Z,101115.69
2022-10-28T01:23:33.528Z,101114.84
2022-10-28T01:28:17.644Z,101111.53
2022-10-28T01:33:07.032Z,101108.53
2022-10-28T01:37:29.407Z,101118.09
2022-10-28T01:41:51.787Z,101112.69
2022-10-28T01:46:27.012Z,101112.47
2022-10-28T01:50:56.384Z,101110.94
2022-10-28T01:55:17.452Z,101104.41
2022-10-28T01:59:34.621Z,101106.28
2022-10-28T02:03:51.203Z,101112.56
2022-10-28T02:08:19.436Z,101117.06
2022-10-28T02:12:38.183Z,101111.81
2022-10-28T02:17:36.706Z,101119.31
2022-10-28T02:22:03.435Z,101109.84
2022-10-28T02:26:37.105Z,101106.66
2022-10-28T02:31:02.503Z,101102.97
2022-10-28T02:35:25.844Z,101103.22
2022-10-28T02:39:44.404Z,101108.06
2022-10-28T02:44:06.295Z,101104.81
2022-10-28T02:48:52.775Z,101103.00
2022-10-28T02:53:19.536Z,101108.09
2022-10-28T02:57:48.723Z,101101.59
2022-10-28T03:02:05.718Z,101098.53
2022-10-28T03:06:21.980Z,101103.12
2022-10-28T03:10:38.168Z,101097.34
2022-10-28T03:14:54.323Z,101095.69
2022-10-28T03:19:10.433Z,101102.03
2022-10-28T03:23:26.651Z,101102.03
2022-10-28T03:27:42.851Z,101097.47
2022-10-28T03:31:59.026Z,101099.69
2022-10-28T03:36:15.177Z,101095.38
2022-10-28T03:40:31.491Z,101091.28
2022-10-28T03:44:47.574Z,101083.59
2022-10-28T03:49:04.334Z,101087.72
2022-10-28T03:53:20.944Z,101082.00
2022-10-28T03:57:37.118Z,101089.78
2022-10-28T04:01:53.414Z,101085.31
2022-10-28T04:06:12.419Z,101084.34
2022-10-28T04:10:28.591Z,101078.84
2022-10-28T04:14:45.029Z,101079.34
2022-10-28T04:19:01.289Z,101068.75
2022-10-28T04:23:21.124Z,101058.47
2022-10-28T04:27:37.324Z,101065.44
2022-10-28T04:31:53.431Z,101061.31
2022-10-28T04:36:10.026Z,101059.31
2022-10-28T04:40:26.145Z,101062.12
2022-10-28T04:44:42.338Z,101059.03
2022-10-28T04:48:58.564Z,101059.03
2022-10-28T04:53:14.695Z,101054.13
2022-10-28T04:57:30.901Z,101060.13
2022-10-28T05:01:47.208Z,101057.72
2022-10-28T05:06:04.026Z,101049.03
2022-10-28T05:10:20.225Z,101054.09
2022-10-28T05:14:36.347Z,101057.31
2022-10-28T05:18:52.467Z,101057.09
2022-10-28T05:23:08.631Z,101062.44
2022-10-28T05:27:24.882Z,101063.94
2022-10-28T05:31:41.023Z,101060.94
2022-10-28T05:35:59.137Z,101077.72
2022-10-28T05:40:15.566Z,101083.25
2022-10-28T05:44:31.797Z,101089.69
2022-10-28T05:48:48.118Z,101086.69
2022-10-28T05:53:04.312Z,101085.13
2022-10-28T05:57:20.501Z,101085.03
2022-10-28T06:01:36.774Z,101088.16
2022-10-28T06:05:54.249Z,101086.16
2022-10-28T06:10:11.394Z,101092.75
2022-10-28T06:14:25.954Z,101091.81
2022-10-28T06:18:42.114Z,101098.16
2022-10-28T06:22:58.328Z,101098.13
2022-10-28T06:27:14.438Z,101092.59
2022-10-28T06:31:32.094Z,101092.13
2022-10-28T06:35:48.250Z,101083.75
2022-10-28T06:40:04.971Z,101092.06
2022-10-28T06:44:21.027Z,101091.28
2022-10-28T06:48:38.700Z,101093.50
2022-10-28T06:52:59.808Z,101091.09
2022-10-28T06:57:15.925Z,101097.69
2022-10-28T07:01:32.151Z,101094.06
2022-10-28T07:05:50.172Z,101098.69
2022-10-28T07:10:07.410Z,101102.78
2022-10-28T07:14:23.673Z,101121.00
2022-10-28T07:18:39.804Z,101116.91
2022-10-28T07:23:00.278Z,101117.97
2022-10-28T07:27:16.476Z,101105.47
2022-10-28T07:31:32.901Z,101108.75
2022-10-28T07:35:49.134Z,101097.53
2022-10-28T07:40:06.209Z,101102.28
2022-10-28T07:44:22.481Z,101099.19
2022-10-28T07:48:39.142Z,101088.75
2022-10-28T07:52:55.562Z,101093.44
2022-10-28T07:57:12.262Z,101100.28
2022-10-28T08:01:28.501Z,101100.09
2022-10-28T08:05:44.775Z,101100.66
2022-10-28T08:10:00.927Z,101100.06
2022-10-28T08:14:17.003Z,101105.56
2022-10-28T08:18:33.222Z,101114.75
2022-10-28T08:22:49.663Z,101121.63
2022-10-28T08:27:06.060Z,101115.84
2022-10-28T08:31:22.362Z,101115.28
2022-10-28T08:35:38.476Z,101123.28
2022-10-28T08:39:54.584Z,101118.87
2022-10-28T08:44:52.150Z,101120.19
2022-10-28T08:49:14.744Z,101114.25
2022-10-28T08:53:45.579Z,101118.34
2022-10-28T08:58:13.524Z,101117.53
2022-10-28T09:02:56.711Z,101120.56
2022-10-28T09:07:20.376Z,101122.00
2022-10-28T09:11:49.090Z,101115.59
2022-10-28T09:16:32.983Z,101125.00
2022-10-28T09:20:52.004Z,101123.84
2022-10-28T09:25:23.476Z,101116.50
2022-10-28T09:29:49.082Z,101107.97
2022-10-28T09:34:36.105Z,101122.25
2022-10-28T09:38:55.141Z,101123.34
2022-10-28T09:43:35.984Z,101122.28
2022-10-28T09:48:03.249Z,101105.22
2022-10-28T09:52:36.395Z,101111.81
2022-10-28T09:56:52.694Z,101099.16
2022-10-28T10:01:08.890Z,101103.28
2022-10-28T10:05:25.991Z,101114.56
2022-10-28T10:09:44.115Z,101120.06
2022-10-28T10:14:03.520Z,101116.78
2022-10-28T10:18:38.443Z,101116.72
2022-10-28T10:22:54.888Z,101111.28
2022-10-28T10:27:11.243Z,101107.41
2022-10-28T10:31:29.979Z,101102.16
2022-10-28T10:35:56.534Z,101110.69
2022-10-28T10:40:25.572Z,101102.09
2022-10-28T10:44:42.793Z,101102.13
2022-10-28T10:49:14.511Z,101097.38
2022-10-28T10:53:32.883Z,101105.69
2022-10-28T10:57:49.587Z,101100.72
2022-10-28T11:02:20.785Z,101099.06
2022-10-28T11:06:42.336Z,101091.97
2022-10-28T11:11:22.136Z,101082.81
2022-10-28T11:15:38.390Z,101081.06
2022-10-28T11:20:00.523Z,101089.12
2022-10-28T11:24:28.710Z,101077.25
2022-10-28T11:29:14.967Z,101070.91
2022-10-28T11:33:55.494Z,101071.78
2022-10-28T11:38:20.536Z,101063.22
2022-10-28T11:43:07.017Z,101057.75
2022-10-28T11:47:47.222Z,101057.19
2022-10-28T11:52:42.759Z,101051.03
2022-10-28T11:57:05.812Z,101051.63
2022-10-28T12:01:34.108Z,101047.78
2022-10-28T12:05:55.244Z,101049.66
2022-10-28T12:10:16.877Z,101049.94
2022-10-28T12:14:53.330Z,101036.56
2022-10-28T12:19:14.440Z,101033.31
2022-10-28T12:23:32.132Z,101035.56
2022-10-28T12:27:50.651Z,101035.44
2022-10-28T12:32:12.214Z,101030.78
2022-10-28T12:36:56.027Z,101027.34
2022-10-28T12:41:23.642Z,101024.78
2022-10-28T12:45:41.029Z,101018.53
2022-10-28T12:50:09.323Z,101012.50
2022-10-28T12:54:59.050Z,101010.00
2022-10-28T12:59:48.409Z,101003.66
2022-10-28T13:04:04.780Z,100998.72
2022-10-28T13:08:39.673Z,101002.16
2022-10-28T13:13:09.238Z,100995.75
2022-10-28T13:17:40.710Z,100996.31
2022-10-28T13:22:41.891Z,100994.31
2022-10-28T13:27:04.195Z,100991.28
2022-10-28T13:31:20.774Z,100988.59
2022-10-28T13:35:37.229Z,100999.63
2022-10-28T13:39:53.356Z,101000.19
2022-10-28T13:44:09.389Z,100999.09
2022-10-28T13:48:43.328Z,101000.97
2022-10-28T13:53:24.280Z,101003.22
2022-10-28T13:57:46.313Z,101000.47
2022-10-28T14:02:35.689Z,101003.00
2022-10-28T14:07:10.409Z,101008.53
2022-10-28T14:11:32.757Z,101009.97
2022-10-28T14:15:49.927Z,101005.75
2022-10-28T14:20:20.940Z,101011.53
2022-10-28T14:24:39.759Z,101008.00
2022-10-28T14:28:56.166Z,101001.44
2022-10-28T14:33:21.761Z,101004.13
2022-10-28T14:38:05.774Z,100994.75
2022-10-28T14:43:05.268Z,100996.19
2022-10-28T14:47:45.785Z,101001.09
2022-10-28T14:52:17.194Z,100994.25
2022-10-28T14:56:33.398Z,100987.66
2022-10-28T15:01:19.579Z,100987.97
2022-10-28T15:05:35.992Z,100979.94
2022-10-28T15:09:53.839Z,100978.75
2022-10-28T15:14:25.449Z,100976.53
2022-10-28T15:18:46.465Z,100976.53
2022-10-28T15:23:22.524Z,100970.41
2022-10-28T15:27:40.163Z,100979.28
2022-10-28T15:32:21.890Z,100968.28
2022-10-28T15:36:38.152Z,100962.25
2022-10-28T15:40:54.643Z,100965.50
2022-10-28T15:45:25.032Z,100964.38
2022-10-28T15:49:41.748Z,100966.38
2022-10-28T15:54:19.198Z,100967.75
2022-10-28T15:58:39.153Z,100972.41
2022-10-28T16:03:05.812Z,100967.19
2022-10-28T16:07:22.843Z,100962.78
2022-10-28T16:11:42.957Z,100966.66
2022-10-28T16:16:13.177Z,100965.81
2022-10-28T16:20:30.360Z,100969.66
2022-10-28T16:24:46.987Z,100976.00
2022-10-28T16:29:03.123Z,100979.28
2022-10-28T16:33:19.527Z,100977.09
2022-10-28T16:37:36.745Z,100982.03
2022-10-28T16:41:56.895Z,100980.38
2022-10-28T16:46:14.004Z,100988.91
2022-10-28T16:50:30.121Z,100982.03
2022-10-28T16:54:46.988Z,100997.41
2022-10-28T16:59:03.221Z,100990.00
2022-10-28T17:03:19.479Z,100982.84
2022-10-28T17:07:35.582Z,100985.87
2022-10-28T17:11:51.727Z,100981.78
2022-10-28T17:16:08.075Z,101000.44
2022-10-28T17:20:24.224Z,100994.97
2022-10-28T17:24:40.450Z,100989.75
2022-10-28T17:28:56.610Z,100996.87
2022-10-28T17:33:12.848Z,100988.06
2022-10-28T17:37:29.015Z,100995.75
2022-10-28T17:41:45.257Z,100994.62
2022-10-28T17:46:06.399Z,100997.94
2022-10-28T17:50:22.555Z,100993.00
2022-10-28T17:54:38.843Z,100994.38
2022-10-28T17:58:55.209Z,100985.25
2022-10-28T18:03:11.374Z,100984.53
2022-10-28T18:07:27.545Z,100991.38
2022-10-28T18:11:43.719Z,100990.28
2022-10-28T18:16:11.500Z,100999.03
2022-10-28T18:20:27.920Z,100984.78
2022-10-28T18:24:44.140Z,100974.34
2022-10-28T18:29:04.183Z,100978.47
2022-10-28T18:33:20.710Z,100970.50
2022-10-28T18:37:36.886Z,100968.28
2022-10-28T18:41:53.012Z,100973.50
2022-10-28T18:46:09.538Z,100971.03
2022-10-28T18:50:25.831Z,100965.00
2022-10-28T18:54:42.099Z,100965.00
2022-10-28T18:59:01.690Z,100974.31
2022-10-28T19:03:22.817Z,100970.75
2022-10-28T19:07:39.100Z,100971.59
2022-10-28T19:11:55.198Z,100958.97
2022-10-28T19:20:32.663Z,100969.94
2022-10-28T19:24:48.835Z,100977.38
2022-10-28T19:29:05.836Z,100987.78
2022-10-28T19:33:21.953Z,100994.94
2022-10-28T19:37:38.053Z,100979.56
2022-10-28T19:41:54.193Z,100981.50
2022-10-28T19:46:15.711Z,100989.47
2022-10-28T19:50:31.828Z,100993.19
2022-10-28T19:54:47.977Z,100983.41
2022-10-28T19:59:05.361Z,100982.56
2022-10-28T20:03:21.570Z,100976.25
2022-10-28T20:07:37.635Z,100975.47
2022-10-28T20:11:53.769Z,100971.31
2022-10-28T20:16:16.989Z,100979.56
2022-10-28T20:20:34.827Z,100991.59
2022-10-28T20:24:51.016Z,100990.81
2022-10-28T20:29:08.883Z,100997.44
2022-10-28T20:33:25.981Z,100993.28
2022-10-28T20:37:42.087Z,101000.19
2022-10-28T20:41:58.168Z,101008.09
2022-10-28T20:46:19.733Z,101002.63
2022-10-28T20:50:36.343Z,100998.41
2022-10-28T20:54:52.442Z,101004.56
2022-10-28T20:59:08.650Z,100998.81
2022-10-28T21:03:25.130Z,100994.13
2022-10-28T21:07:41.239Z,101005.94
2022-10-28T21:11:57.385Z,101002.94
2022-10-28T21:16:13.974Z,100997.97
2022-10-28T21:20:31.125Z,100985.34
2022-10-28T21:24:47.291Z,100993.53
2022-10-28T21:29:03.435Z,100988.28
2022-10-28T21:33:19.588Z,100981.72
2022-10-28T21:37:35.800Z,100977.91
2022-10-28T21:41:53.237Z,100973.25
2022-10-28T21:46:10.062Z,100969.91
2022-10-28T21:50:26.200Z,100966.63
2022-10-28T21:54:42.840Z,100965.25
2022-10-28T21:58:58.984Z,100960.31
2022-10-28T22:03:15.386Z,100961.72
2022-10-28T22:07:31.511Z,100962.25
2022-10-28T22:11:47.669Z,100969.94
2022-10-28T22:16:06.638Z,100983.66
2022-10-28T22:20:22.970Z,100977.91
2022-10-28T22:24:39.217Z,100968.28
2022-10-28T22:28:55.617Z,100971.81
2022-10-28T22:33:11.789Z,100969.91
2022-10-28T22:37:27.959Z,100959.72
2022-10-28T22:41:44.078Z,100956.44
2022-10-28T22:46:00.915Z,100955.06
2022-10-28T22:50:17.234Z,100950.16
2022-10-28T22:54:33.423Z,100946.25
2022-10-28T22:58:54.187Z,100944.09
2022-10-28T23:03:10.555Z,100939.44
2022-10-28T23:07:26.746Z,100931.47
2022-10-28T23:11:42.905Z,100924.59
2022-10-28T23:16:07.172Z,100921.84
2022-10-28T23:20:25.117Z,100919.97
2022-10-28T23:24:41.401Z,100932.31
2022-10-28T23:28:59.663Z,100934.50
2022-10-28T23:33:15.907Z,100929.56
2022-10-28T23:37:32.428Z,100935.84
2022-10-28T23:41:48.790Z,100945.72
2022-10-28T23:46:05.105Z,100950.59
2022-10-28T23:50:21.336Z,100953.41
2022-10-28T23:54:37.662Z,100958.09
2022-10-28T23:58:53.870Z,100957.28
